Terminal Aerodrome Forecast
Issued by NWS Kansas City/Pleasant Hill, MO

Home | Current Version | Previous Version | Graphics & Text | Print | Product List | Glossary On
Versions: 1 2 3 4 5 6 7 8 9 10 11 12 13 14 15 16 17 18 19 20 21 22 23
000
FTUS43 KEAX 161100
TAFMCI
TAF
KMCI 161123Z 1612/1712 17017G25KT P6SM SKC
     FM161400 19026G37KT P6SM SCT200
     FM162000 20018G28KT P6SM SCT070
     FM170300 30005KT P6SM BKN060
     FM170600 34007KT P6SM SCT060=

USA.gov is the U.S. government's official web portal to all federal, state and local government web resources and services.